CFG8MX ESSA-EDDF
Flight info
| Callsign | CFG8MX |
|---|---|
| Flight time | 1h 39m |
| Altitude | 36000 |
| Route | NOSLI N850 ABAMA DCT BUMIL DCT HLZ DCT RIMET/N0402F310 T157 KOKEB/N0353F230 T157 KERAX |
| Aircraft | A320/M-SDE3FGHIRWY/LB1 |
Departure
| Time | 2026-04-16 22:00 |
|---|---|
| Airport | Stockholm-Arlanda Airport (ESSA) |
Arrival
| Time | 2026-04-16 23:40 |
|---|---|
| Airport | Frankfurt Main Airport (EDDF) |
| Time | Latitude | Longitude | Altitude | Speed | Heading |
|---|---|---|---|---|---|
| 2026-04-16 20:45 | 59.64736 | 17.92600 | 111 ft | 0 kts | 34° |
| 2026-04-16 21:52 | 59.64736 | 17.92599 | 112 ft | 0 kts | 34° |
| 2026-04-16 21:52 | 59.64726 | 17.92585 | 112 ft | 3 kts | 34° |
| 2026-04-16 21:53 | 59.64708 | 17.92565 | 112 ft | 3 kts | 19° |
| 2026-04-16 21:53 | 59.64691 | 17.92558 | 112 ft | 2 kts | 338° |
| 2026-04-16 21:53 | 59.64682 | 17.92570 | 112 ft | 1 kts | 287° |
| 2026-04-16 21:53 | 59.64681 | 17.92573 | 112 ft | 0 kts | 286° |
| 2026-04-16 21:55 | 59.64690 | 17.92516 | 112 ft | 18 kts | 286° |
| 2026-04-16 21:56 | 59.64721 | 17.92303 | 112 ft | 14 kts | 286° |
| 2026-04-16 21:56 | 59.64741 | 17.92098 | 109 ft | 17 kts | 256° |
| 2026-04-16 21:56 | 59.64640 | 17.92013 | 109 ft | 15 kts | 189° |
| 2026-04-16 21:56 | 59.64549 | 17.91978 | 110 ft | 12 kts | 191° |
| 2026-04-16 21:57 | 59.64475 | 17.91964 | 111 ft | 8 kts | 169° |
| 2026-04-16 21:57 | 59.64441 | 17.91948 | 111 ft | 7 kts | 194° |
| 2026-04-16 21:57 | 59.64335 | 17.91898 | 111 ft | 19 kts | 191° |
| 2026-04-16 21:57 | 59.64208 | 17.91852 | 114 ft | 18 kts | 190° |
| 2026-04-16 21:58 | 59.64091 | 17.91816 | 114 ft | 16 kts | 188° |
| 2026-04-16 21:58 | 59.63982 | 17.91776 | 111 ft | 16 kts | 191° |
| 2026-04-16 21:58 | 59.63871 | 17.91729 | 109 ft | 18 kts | 196° |
| 2026-04-16 21:58 | 59.63765 | 17.91575 | 106 ft | 20 kts | 223° |
| 2026-04-16 21:59 | 59.63736 | 17.91392 | 109 ft | 11 kts | 308° |
| 2026-04-16 21:59 | 59.63778 | 17.91343 | 110 ft | 11 kts | 343° |
| 2026-04-16 21:59 | 59.63863 | 17.91376 | 109 ft | 14 kts | 12° |
| 2026-04-16 21:59 | 59.63950 | 17.91407 | 110 ft | 7 kts | 9° |
| 2026-04-16 22:00 | 59.64014 | 17.91430 | 109 ft | 21 kts | 10° |
| 2026-04-16 22:00 | 59.64430 | 17.91579 | 109 ft | 96 kts | 10° |
| 2026-04-16 22:00 | 59.65293 | 17.91894 | 109 ft | 153 kts | 10° |
| 2026-04-16 22:00 | 59.66324 | 17.92198 | 786 ft | 143 kts | 4° |
| 2026-04-16 22:01 | 59.67347 | 17.92276 | 1329 ft | 152 kts | 348° |
| 2026-04-16 22:01 | 59.68360 | 17.91670 | 1856 ft | 154 kts | 331° |
| 2026-04-16 22:01 | 59.69325 | 17.90499 | 2270 ft | 169 kts | 321° |
| 2026-04-16 22:01 | 59.69953 | 17.88513 | 2824 ft | 182 kts | 284° |
| 2026-04-16 22:02 | 59.69856 | 17.85824 | 3183 ft | 211 kts | 263° |
| 2026-04-16 22:02 | 59.69497 | 17.82868 | 3659 ft | 227 kts | 259° |
| 2026-04-16 22:02 | 59.69087 | 17.79852 | 4357 ft | 231 kts | 257° |
| 2026-04-16 22:02 | 59.68649 | 17.76754 | 5130 ft | 239 kts | 256° |
| 2026-04-16 22:03 | 59.68137 | 17.73448 | 5566 ft | 263 kts | 253° |
| 2026-04-16 22:03 | 59.67539 | 17.69871 | 6116 ft | 282 kts | 248° |
| 2026-04-16 22:03 | 59.66481 | 17.66574 | 6946 ft | 288 kts | 226° |
| 2026-04-16 22:03 | 59.64881 | 17.64183 | 7833 ft | 291 kts | 205° |
| 2026-04-16 22:04 | 59.62972 | 17.62843 | 8728 ft | 293 kts | 195° |
| 2026-04-16 22:04 | 59.61011 | 17.61656 | 9605 ft | 296 kts | 195° |
| 2026-04-16 22:04 | 59.59033 | 17.60462 | 10457 ft | 300 kts | 194° |
| 2026-04-16 22:04 | 59.56961 | 17.59212 | 10806 ft | 323 kts | 194° |
| 2026-04-16 22:05 | 59.54765 | 17.57883 | 11379 ft | 334 kts | 194° |
| 2026-04-16 22:05 | 59.52533 | 17.56521 | 12191 ft | 336 kts | 194° |
| 2026-04-16 22:05 | 59.50324 | 17.55119 | 12988 ft | 339 kts | 196° |
| 2026-04-16 22:05 | 59.48082 | 17.53600 | 13741 ft | 342 kts | 197° |
| 2026-04-16 22:06 | 59.45827 | 17.52016 | 14467 ft | 346 kts | 197° |
| 2026-04-16 22:06 | 59.41259 | 17.48796 | 15871 ft | 352 kts | 197° |
| 2026-04-16 22:06 | 59.38945 | 17.47192 | 16543 ft | 355 kts | 197° |
| 2026-04-16 22:07 | 59.36604 | 17.45591 | 17195 ft | 357 kts | 197° |
| 2026-04-16 22:07 | 59.34245 | 17.43991 | 17836 ft | 360 kts | 197° |
| 2026-04-16 22:07 | 59.31864 | 17.42382 | 18471 ft | 363 kts | 196° |
| 2026-04-16 22:07 | 59.29467 | 17.40762 | 19048 ft | 366 kts | 196° |
| 2026-04-16 22:08 | 59.27048 | 17.39128 | 19641 ft | 370 kts | 196° |
| 2026-04-16 22:08 | 59.24600 | 17.37473 | 20216 ft | 373 kts | 196° |
| 2026-04-16 22:08 | 59.22133 | 17.35796 | 20778 ft | 377 kts | 196° |
| 2026-04-16 22:08 | 59.19646 | 17.34110 | 21331 ft | 380 kts | 196° |
| 2026-04-16 22:09 | 59.17136 | 17.32419 | 21877 ft | 383 kts | 196° |
| 2026-04-16 22:09 | 59.14602 | 17.30724 | 22414 ft | 387 kts | 196° |
| 2026-04-16 22:09 | 59.12044 | 17.29013 | 22929 ft | 390 kts | 195° |
| 2026-04-16 22:09 | 59.09475 | 17.27267 | 23452 ft | 394 kts | 198° |
| 2026-04-16 22:10 | 59.06995 | 17.24907 | 23929 ft | 401 kts | 208° |
| 2026-04-16 22:10 | 59.04723 | 17.21705 | 24398 ft | 407 kts | 217° |
| 2026-04-16 22:10 | 59.02546 | 17.18152 | 24884 ft | 410 kts | 217° |
| 2026-04-16 22:10 | 59.00349 | 17.14593 | 25348 ft | 412 kts | 217° |
| 2026-04-16 22:11 | 58.98139 | 17.11031 | 25795 ft | 414 kts | 217° |
| 2026-04-16 22:11 | 58.95943 | 17.07507 | 26215 ft | 416 kts | 216° |
| 2026-04-16 22:11 | 58.93705 | 17.03924 | 26633 ft | 418 kts | 216° |
| 2026-04-16 22:11 | 58.91457 | 17.00334 | 27028 ft | 420 kts | 216° |
| 2026-04-16 22:12 | 58.89167 | 16.96681 | 27418 ft | 423 kts | 216° |
| 2026-04-16 22:12 | 58.86918 | 16.93096 | 27803 ft | 425 kts | 216° |
| 2026-04-16 22:12 | 58.84634 | 16.89462 | 28179 ft | 427 kts | 216° |
| 2026-04-16 22:12 | 58.82338 | 16.85808 | 28541 ft | 429 kts | 217° |
| 2026-04-16 22:13 | 58.80035 | 16.82146 | 28890 ft | 430 kts | 217° |
| 2026-04-16 22:13 | 58.77716 | 16.78464 | 29225 ft | 432 kts | 217° |
| 2026-04-16 22:13 | 58.75390 | 16.74778 | 29548 ft | 434 kts | 217° |
| 2026-04-16 22:13 | 58.73049 | 16.71077 | 29869 ft | 436 kts | 217° |
| 2026-04-16 22:14 | 58.70695 | 16.67370 | 30181 ft | 438 kts | 217° |
| 2026-04-16 22:14 | 58.68329 | 16.63654 | 30478 ft | 440 kts | 217° |
| 2026-04-16 22:14 | 58.65952 | 16.59926 | 30764 ft | 442 kts | 217° |
| 2026-04-16 22:14 | 58.63559 | 16.56180 | 31037 ft | 444 kts | 217° |
| 2026-04-16 22:15 | 58.61156 | 16.52420 | 31286 ft | 446 kts | 217° |
| 2026-04-16 22:15 | 58.58746 | 16.48647 | 31532 ft | 448 kts | 217° |
| 2026-04-16 22:15 | 58.56326 | 16.44863 | 31781 ft | 450 kts | 217° |
| 2026-04-16 22:15 | 58.53895 | 16.41069 | 32113 ft | 450 kts | 218° |
| 2026-04-16 22:16 | 58.51845 | 16.37882 | 32406 ft | 449 kts | 217° |
| 2026-04-16 22:16 | 58.51038 | 16.36632 | 32521 ft | 449 kts | 218° |
| 2026-04-16 22:16 | 58.48615 | 16.32881 | 32848 ft | 448 kts | 218° |
| 2026-04-16 22:16 | 58.46181 | 16.29119 | 33066 ft | 450 kts | 218° |
| 2026-04-16 22:17 | 58.43745 | 16.25357 | 33327 ft | 451 kts | 218° |
| 2026-04-16 22:17 | 58.41306 | 16.21598 | 33612 ft | 451 kts | 218° |
| 2026-04-16 22:17 | 58.38899 | 16.17896 | 33912 ft | 450 kts | 218° |
| 2026-04-16 22:17 | 58.36461 | 16.14151 | 34237 ft | 449 kts | 218° |
| 2026-04-16 22:18 | 58.34032 | 16.10428 | 34543 ft | 448 kts | 218° |
| 2026-04-16 22:18 | 58.31606 | 16.06721 | 34861 ft | 447 kts | 218° |
| 2026-04-16 22:18 | 58.29183 | 16.03026 | 35173 ft | 445 kts | 218° |
| 2026-04-16 22:18 | 58.26773 | 15.99354 | 35476 ft | 443 kts | 218° |
| 2026-04-16 22:19 | 58.24367 | 15.95688 | 35755 ft | 442 kts | 218° |
| 2026-04-16 22:19 | 58.21973 | 15.92046 | 36049 ft | 441 kts | 218° |
| 2026-04-16 22:19 | 58.19581 | 15.88415 | 36300 ft | 440 kts | 218° |
| 2026-04-16 22:19 | 58.17190 | 15.84792 | 36543 ft | 439 kts | 218° |
| 2026-04-16 22:20 | 58.14803 | 15.81185 | 36792 ft | 438 kts | 218° |
| 2026-04-16 22:20 | 58.12424 | 15.77597 | 37071 ft | 436 kts | 219° |
| 2026-04-16 22:20 | 58.10058 | 15.74031 | 37375 ft | 434 kts | 219° |
| 2026-04-16 22:20 | 58.07702 | 15.70487 | 37614 ft | 432 kts | 219° |
| 2026-04-16 22:21 | 58.05346 | 15.66959 | 37790 ft | 432 kts | 219° |
| 2026-04-16 22:21 | 58.02983 | 15.63436 | 37931 ft | 433 kts | 219° |
| 2026-04-16 22:21 | 58.00616 | 15.59905 | 38060 ft | 435 kts | 219° |
| 2026-04-16 22:21 | 57.98169 | 15.56560 | 38207 ft | 436 kts | 212° |
| 2026-04-16 22:22 | 57.92829 | 15.51064 | 38248 ft | 438 kts | 209° |
| 2026-04-16 22:22 | 57.87456 | 15.45661 | 38248 ft | 437 kts | 209° |
| 2026-04-16 22:23 | 57.82092 | 15.40284 | 38248 ft | 437 kts | 209° |
| 2026-04-16 22:23 | 57.76768 | 15.34953 | 38246 ft | 437 kts | 209° |
| 2026-04-16 22:24 | 57.71409 | 15.29597 | 38247 ft | 436 kts | 209° |
| 2026-04-16 22:24 | 57.66053 | 15.24255 | 38250 ft | 436 kts | 209° |
| 2026-04-16 22:25 | 57.60695 | 15.18939 | 38256 ft | 436 kts | 209° |
| 2026-04-16 22:25 | 57.55328 | 15.13652 | 38229 ft | 437 kts | 209° |
| 2026-04-16 22:26 | 57.49928 | 15.08340 | 38217 ft | 440 kts | 209° |
| 2026-04-16 22:26 | 57.44491 | 15.02999 | 38215 ft | 443 kts | 209° |
| 2026-04-16 22:27 | 57.39040 | 14.97661 | 38216 ft | 443 kts | 209° |
| 2026-04-16 22:27 | 57.33611 | 14.92368 | 38228 ft | 444 kts | 209° |
| 2026-04-16 22:28 | 57.28137 | 14.87054 | 38231 ft | 444 kts | 209° |
| 2026-04-16 22:28 | 57.22659 | 14.81755 | 38245 ft | 444 kts | 209° |
| 2026-04-16 22:29 | 57.17177 | 14.76469 | 38251 ft | 444 kts | 209° |
| 2026-04-16 22:29 | 57.11695 | 14.71188 | 38250 ft | 445 kts | 209° |
| 2026-04-16 22:30 | 57.06215 | 14.65915 | 38253 ft | 445 kts | 209° |
| 2026-04-16 22:30 | 57.00723 | 14.60667 | 38256 ft | 444 kts | 209° |
| 2026-04-16 22:31 | 56.95227 | 14.55446 | 38257 ft | 444 kts | 209° |
| 2026-04-16 22:31 | 56.89733 | 14.50227 | 38258 ft | 445 kts | 209° |
| 2026-04-16 22:32 | 56.84254 | 14.45052 | 38262 ft | 446 kts | 209° |
| 2026-04-16 22:32 | 56.78734 | 14.39867 | 38267 ft | 446 kts | 209° |
| 2026-04-16 22:33 | 56.73216 | 14.34688 | 38267 ft | 446 kts | 209° |
| 2026-04-16 22:33 | 56.67699 | 14.29511 | 38269 ft | 446 kts | 209° |
| 2026-04-16 22:34 | 56.62177 | 14.24351 | 38266 ft | 446 kts | 209° |
| 2026-04-16 22:34 | 56.56649 | 14.19199 | 38271 ft | 446 kts | 209° |
| 2026-04-16 22:35 | 56.51123 | 14.14083 | 38277 ft | 446 kts | 209° |
| 2026-04-16 22:35 | 56.45633 | 14.09018 | 38273 ft | 445 kts | 209° |
| 2026-04-16 22:36 | 56.40114 | 14.03936 | 38275 ft | 445 kts | 209° |
| 2026-04-16 22:36 | 56.34598 | 13.98861 | 38278 ft | 445 kts | 209° |
| 2026-04-16 22:37 | 56.29079 | 13.93812 | 38278 ft | 445 kts | 209° |
| 2026-04-16 22:37 | 56.23551 | 13.88777 | 38287 ft | 445 kts | 209° |
| 2026-04-16 22:38 | 56.18026 | 13.83760 | 38289 ft | 445 kts | 209° |
| 2026-04-16 22:38 | 56.12494 | 13.78743 | 38293 ft | 445 kts | 209° |
| 2026-04-16 22:39 | 56.06964 | 13.73750 | 38293 ft | 445 kts | 209° |
| 2026-04-16 22:39 | 56.01460 | 13.68799 | 38293 ft | 445 kts | 209° |
| 2026-04-16 22:40 | 55.95926 | 13.63839 | 38290 ft | 445 kts | 209° |
| 2026-04-16 22:40 | 55.90393 | 13.58886 | 38288 ft | 445 kts | 209° |
| 2026-04-16 22:41 | 55.84859 | 13.53953 | 38280 ft | 444 kts | 209° |
| 2026-04-16 22:41 | 55.79322 | 13.49039 | 38279 ft | 444 kts | 209° |
| 2026-04-16 22:42 | 55.73785 | 13.44125 | 38274 ft | 445 kts | 209° |
| 2026-04-16 22:42 | 55.68285 | 13.39255 | 38272 ft | 445 kts | 209° |
| 2026-04-16 22:43 | 55.62746 | 13.34369 | 38270 ft | 444 kts | 209° |
| 2026-04-16 22:43 | 55.57199 | 13.29521 | 38263 ft | 444 kts | 209° |
| 2026-04-16 22:44 | 55.51656 | 13.24679 | 38257 ft | 444 kts | 209° |
| 2026-04-16 22:44 | 55.46112 | 13.19838 | 38257 ft | 445 kts | 209° |
| 2026-04-16 22:45 | 55.40560 | 13.15014 | 38257 ft | 445 kts | 209° |
| 2026-04-16 22:45 | 55.35043 | 13.10240 | 38255 ft | 445 kts | 209° |
| 2026-04-16 22:46 | 55.29485 | 13.05439 | 38258 ft | 445 kts | 209° |
| 2026-04-16 22:46 | 55.23934 | 13.00656 | 38258 ft | 445 kts | 209° |
| 2026-04-16 22:47 | 55.18377 | 12.95894 | 38260 ft | 444 kts | 209° |
| 2026-04-16 22:47 | 55.13767 | 12.91937 | 38257 ft | 444 kts | 209° |
| 2026-04-16 22:48 | 55.08213 | 12.87183 | 38261 ft | 445 kts | 209° |
| 2026-04-16 22:48 | 55.02651 | 12.82454 | 38260 ft | 445 kts | 209° |
| 2026-04-16 22:49 | 54.97085 | 12.77739 | 38262 ft | 444 kts | 209° |
| 2026-04-16 22:49 | 54.91518 | 12.73030 | 38261 ft | 445 kts | 209° |
| 2026-04-16 22:50 | 54.85944 | 12.68335 | 38262 ft | 445 kts | 209° |
| 2026-04-16 22:50 | 54.80407 | 12.63687 | 38263 ft | 445 kts | 209° |
| 2026-04-16 22:51 | 54.74827 | 12.59010 | 38270 ft | 445 kts | 209° |
| 2026-04-16 22:51 | 54.69246 | 12.54351 | 38273 ft | 445 kts | 209° |
| 2026-04-16 22:52 | 54.63653 | 12.49693 | 38243 ft | 448 kts | 209° |
| 2026-04-16 22:52 | 54.58017 | 12.45013 | 38226 ft | 450 kts | 209° |
| 2026-04-16 22:53 | 54.52358 | 12.40332 | 38228 ft | 452 kts | 209° |
| 2026-04-16 22:53 | 54.46678 | 12.35639 | 38240 ft | 453 kts | 209° |
| 2026-04-16 22:54 | 54.40983 | 12.30965 | 38247 ft | 454 kts | 209° |
| 2026-04-16 22:54 | 54.35321 | 12.26321 | 38247 ft | 454 kts | 209° |
| 2026-04-16 22:55 | 54.29613 | 12.21648 | 38252 ft | 454 kts | 209° |
| 2026-04-16 22:55 | 54.23900 | 12.16995 | 38259 ft | 455 kts | 209° |
| 2026-04-16 22:56 | 54.18176 | 12.12349 | 38261 ft | 455 kts | 209° |
| 2026-04-16 22:56 | 54.12453 | 12.07721 | 38256 ft | 455 kts | 209° |
| 2026-04-16 22:57 | 54.06735 | 12.03104 | 38258 ft | 455 kts | 209° |
| 2026-04-16 22:57 | 54.01054 | 11.98522 | 38256 ft | 455 kts | 209° |
| 2026-04-16 22:58 | 53.95334 | 11.93917 | 38256 ft | 455 kts | 209° |
| 2026-04-16 22:58 | 53.89610 | 11.89345 | 38257 ft | 454 kts | 208° |
| 2026-04-16 22:59 | 53.83880 | 11.84798 | 38256 ft | 455 kts | 208° |
| 2026-04-16 22:59 | 53.78152 | 11.80240 | 38257 ft | 455 kts | 209° |
| 2026-04-16 23:00 | 53.72424 | 11.75690 | 38259 ft | 455 kts | 208° |
| 2026-04-16 23:00 | 53.66693 | 11.71166 | 38265 ft | 455 kts | 208° |
| 2026-04-16 23:01 | 53.60957 | 11.66650 | 38268 ft | 455 kts | 209° |
| 2026-04-16 23:01 | 53.55232 | 11.62140 | 38269 ft | 454 kts | 208° |
| 2026-04-16 23:02 | 53.49499 | 11.57650 | 38273 ft | 454 kts | 208° |
| 2026-04-16 23:02 | 53.43761 | 11.53179 | 38280 ft | 454 kts | 208° |
| 2026-04-16 23:03 | 53.38027 | 11.48711 | 38282 ft | 454 kts | 209° |
| 2026-04-16 23:03 | 53.32290 | 11.44245 | 38288 ft | 454 kts | 209° |
| 2026-04-16 23:04 | 53.26589 | 11.39832 | 38285 ft | 454 kts | 209° |
| 2026-04-16 23:04 | 53.20844 | 11.35419 | 38280 ft | 453 kts | 209° |
| 2026-04-16 23:05 | 53.15117 | 11.31022 | 38276 ft | 453 kts | 209° |
| 2026-04-16 23:05 | 53.09361 | 11.26710 | 38273 ft | 454 kts | 207° |
| 2026-04-16 23:06 | 53.03471 | 11.22811 | 38278 ft | 456 kts | 205° |
| 2026-04-16 23:06 | 52.97535 | 11.19070 | 38273 ft | 456 kts | 205° |
| 2026-04-16 23:07 | 52.91660 | 11.15292 | 38277 ft | 455 kts | 206° |
| 2026-04-16 23:07 | 52.85780 | 11.11420 | 38278 ft | 455 kts | 206° |
| 2026-04-16 23:08 | 52.79894 | 11.07549 | 38282 ft | 455 kts | 206° |
| 2026-04-16 23:08 | 52.74000 | 11.03718 | 38281 ft | 455 kts | 206° |
| 2026-04-16 23:09 | 52.68099 | 10.99910 | 38285 ft | 455 kts | 206° |
| 2026-04-16 23:09 | 52.62200 | 10.96096 | 38284 ft | 455 kts | 206° |
| 2026-04-16 23:10 | 52.56303 | 10.92291 | 38280 ft | 455 kts | 206° |
| 2026-04-16 23:10 | 52.50443 | 10.88534 | 38278 ft | 455 kts | 206° |
| 2026-04-16 23:11 | 52.44541 | 10.84763 | 38284 ft | 455 kts | 206° |
| 2026-04-16 23:11 | 52.38648 | 10.81001 | 38281 ft | 455 kts | 206° |
| 2026-04-16 23:12 | 52.32724 | 10.77323 | 38278 ft | 456 kts | 205° |
| 2026-04-16 23:12 | 52.26728 | 10.73914 | 38281 ft | 456 kts | 204° |
| 2026-04-16 23:13 | 52.20712 | 10.70573 | 38283 ft | 457 kts | 204° |
| 2026-04-16 23:13 | 52.14701 | 10.67199 | 38284 ft | 457 kts | 205° |
| 2026-04-16 23:14 | 52.08692 | 10.63795 | 38282 ft | 457 kts | 205° |
| 2026-04-16 23:14 | 52.02719 | 10.60410 | 38278 ft | 458 kts | 205° |
| 2026-04-16 23:15 | 51.93686 | 10.55325 | 38281 ft | 458 kts | 205° |
| 2026-04-16 23:16 | 51.87661 | 10.51938 | 38281 ft | 459 kts | 205° |
| 2026-04-16 23:16 | 51.81627 | 10.48573 | 38279 ft | 459 kts | 205° |
| 2026-04-16 23:17 | 51.75705 | 10.44805 | 38281 ft | 455 kts | 209° |
| 2026-04-16 23:17 | 51.69931 | 10.40632 | 38279 ft | 454 kts | 210° |
| 2026-04-16 23:18 | 51.64164 | 10.36467 | 38282 ft | 455 kts | 210° |
| 2026-04-16 23:18 | 51.58386 | 10.32457 | 38283 ft | 455 kts | 209° |
| 2026-04-16 23:19 | 51.52551 | 10.28488 | 38278 ft | 455 kts | 209° |
| 2026-04-16 23:19 | 51.46712 | 10.24513 | 37882 ft | 457 kts | 209° |
| 2026-04-16 23:19 | 51.43774 | 10.22508 | 37156 ft | 456 kts | 209° |
| 2026-04-16 23:20 | 51.40872 | 10.20529 | 36903 ft | 451 kts | 210° |
| 2026-04-16 23:20 | 51.37991 | 10.18564 | 36656 ft | 449 kts | 210° |
| 2026-04-16 23:20 | 51.35118 | 10.16604 | 36405 ft | 448 kts | 210° |
| 2026-04-16 23:20 | 51.32242 | 10.14644 | 36153 ft | 449 kts | 210° |
| 2026-04-16 23:21 | 51.29357 | 10.12675 | 35902 ft | 452 kts | 210° |
| 2026-04-16 23:21 | 51.26456 | 10.10700 | 35651 ft | 455 kts | 210° |
| 2026-04-16 23:21 | 51.23532 | 10.08717 | 35166 ft | 458 kts | 210° |
| 2026-04-16 23:21 | 51.20642 | 10.06760 | 34246 ft | 463 kts | 210° |
| 2026-04-16 23:22 | 51.17665 | 10.04750 | 33253 ft | 467 kts | 210° |
| 2026-04-16 23:22 | 51.14655 | 10.02723 | 32158 ft | 472 kts | 210° |
| 2026-04-16 23:22 | 51.11618 | 10.00682 | 31094 ft | 475 kts | 210° |
| 2026-04-16 23:22 | 51.08566 | 9.98631 | 29872 ft | 478 kts | 209° |
| 2026-04-16 23:23 | 51.05493 | 9.96567 | 28706 ft | 479 kts | 209° |
| 2026-04-16 23:23 | 51.02453 | 9.94536 | 28063 ft | 469 kts | 208° |
| 2026-04-16 23:23 | 50.99471 | 9.92552 | 27310 ft | 462 kts | 208° |
| 2026-04-16 23:23 | 50.96525 | 9.90589 | 26572 ft | 456 kts | 208° |
| 2026-04-16 23:24 | 50.93622 | 9.88652 | 25852 ft | 451 kts | 208° |
| 2026-04-16 23:24 | 50.90741 | 9.86733 | 25144 ft | 446 kts | 208° |
| 2026-04-16 23:24 | 50.87894 | 9.84839 | 24440 ft | 441 kts | 207° |
| 2026-04-16 23:24 | 50.85083 | 9.82970 | 23751 ft | 436 kts | 207° |
| 2026-04-16 23:25 | 50.82304 | 9.81120 | 23076 ft | 432 kts | 207° |
| 2026-04-16 23:25 | 50.79581 | 9.79311 | 22457 ft | 427 kts | 207° |
| 2026-04-16 23:25 | 50.76817 | 9.77481 | 21831 ft | 423 kts | 207° |
| 2026-04-16 23:25 | 50.74163 | 9.75724 | 21283 ft | 417 kts | 207° |
| 2026-04-16 23:26 | 50.71496 | 9.73961 | 20725 ft | 412 kts | 207° |
| 2026-04-16 23:26 | 50.68867 | 9.72229 | 20195 ft | 407 kts | 206° |
| 2026-04-16 23:26 | 50.66267 | 9.70516 | 19676 ft | 403 kts | 206° |
| 2026-04-16 23:26 | 50.63694 | 9.68825 | 19165 ft | 399 kts | 206° |
| 2026-04-16 23:27 | 50.61145 | 9.67151 | 18642 ft | 394 kts | 206° |
| 2026-04-16 23:27 | 50.58620 | 9.65490 | 18124 ft | 391 kts | 206° |
| 2026-04-16 23:27 | 50.56119 | 9.63843 | 17590 ft | 388 kts | 206° |
| 2026-04-16 23:27 | 50.53643 | 9.62214 | 17064 ft | 385 kts | 206° |
| 2026-04-16 23:28 | 50.51173 | 9.60595 | 16516 ft | 382 kts | 206° |
| 2026-04-16 23:28 | 50.48806 | 9.58775 | 15970 ft | 376 kts | 214° |
| 2026-04-16 23:28 | 50.46737 | 9.56326 | 15403 ft | 370 kts | 225° |
| 2026-04-16 23:28 | 50.45029 | 9.53356 | 14847 ft | 365 kts | 234° |
| 2026-04-16 23:29 | 50.43460 | 9.50244 | 14298 ft | 362 kts | 233° |
| 2026-04-16 23:29 | 50.41900 | 9.47162 | 13739 ft | 359 kts | 233° |
| 2026-04-16 23:29 | 50.40346 | 9.44114 | 13173 ft | 357 kts | 233° |
| 2026-04-16 23:29 | 50.38798 | 9.41087 | 12600 ft | 354 kts | 233° |
| 2026-04-16 23:30 | 50.37265 | 9.38088 | 12025 ft | 352 kts | 233° |
| 2026-04-16 23:30 | 50.35742 | 9.35100 | 11444 ft | 349 kts | 232° |
| 2026-04-16 23:30 | 50.34228 | 9.32145 | 10924 ft | 345 kts | 232° |
| 2026-04-16 23:30 | 50.32779 | 9.29321 | 10793 ft | 329 kts | 232° |
| 2026-04-16 23:31 | 50.31357 | 9.26551 | 10662 ft | 315 kts | 232° |
| 2026-04-16 23:31 | 50.30016 | 9.23941 | 10535 ft | 302 kts | 232° |
| 2026-04-16 23:31 | 50.28742 | 9.21460 | 10393 ft | 291 kts | 232° |
| 2026-04-16 23:31 | 50.27489 | 9.19025 | 10153 ft | 285 kts | 232° |
| 2026-04-16 23:32 | 50.26250 | 9.16625 | 10033 ft | 284 kts | 232° |
| 2026-04-16 23:32 | 50.25018 | 9.14238 | 9820 ft | 281 kts | 232° |
| 2026-04-16 23:32 | 50.23791 | 9.11853 | 9465 ft | 281 kts | 232° |
| 2026-04-16 23:32 | 50.22553 | 9.09470 | 8893 ft | 284 kts | 232° |
| 2026-04-16 23:33 | 50.21304 | 9.07074 | 8524 ft | 284 kts | 232° |
| 2026-04-16 23:33 | 50.20061 | 9.04688 | 8197 ft | 282 kts | 232° |
| 2026-04-16 23:33 | 50.18697 | 9.02534 | 7751 ft | 280 kts | 218° |
| 2026-04-16 23:33 | 50.16985 | 9.01042 | 7306 ft | 283 kts | 201° |
| 2026-04-16 23:34 | 50.15067 | 9.00306 | 6899 ft | 285 kts | 192° |
| 2026-04-16 23:34 | 50.13119 | 8.99725 | 6486 ft | 283 kts | 192° |
| 2026-04-16 23:34 | 50.11203 | 8.99153 | 6093 ft | 278 kts | 193° |
| 2026-04-16 23:34 | 50.09437 | 8.98080 | 5713 ft | 266 kts | 215° |
| 2026-04-16 23:35 | 50.08171 | 8.96128 | 5343 ft | 249 kts | 239° |
| 2026-04-16 23:35 | 50.07496 | 8.93748 | 5011 ft | 236 kts | 253° |
| 2026-04-16 23:35 | 50.06984 | 8.91320 | 4671 ft | 235 kts | 253° |
| 2026-04-16 23:35 | 50.06471 | 8.88911 | 4338 ft | 234 kts | 252° |
| 2026-04-16 23:36 | 50.06103 | 8.86467 | 4008 ft | 231 kts | 268° |
| 2026-04-16 23:36 | 50.06194 | 8.84035 | 3704 ft | 224 kts | 275° |
| 2026-04-16 23:36 | 50.06316 | 8.81694 | 3419 ft | 214 kts | 275° |
| 2026-04-16 23:36 | 50.06436 | 8.79373 | 3126 ft | 215 kts | 275° |
| 2026-04-16 23:37 | 50.06557 | 8.77060 | 2832 ft | 214 kts | 275° |
| 2026-04-16 23:37 | 50.06677 | 8.74761 | 2531 ft | 211 kts | 274° |
| 2026-04-16 23:37 | 50.06790 | 8.72540 | 2258 ft | 200 kts | 274° |
| 2026-04-16 23:37 | 50.06785 | 8.70463 | 2025 ft | 186 kts | 257° |
| 2026-04-16 23:38 | 50.06526 | 8.69233 | 1830 ft | 176 kts | 249° |
| 2026-04-16 23:38 | 50.06118 | 8.67521 | 1597 ft | 162 kts | 249° |
| 2026-04-16 23:38 | 50.05728 | 8.65889 | 1410 ft | 166 kts | 249° |
| 2026-04-16 23:38 | 50.05319 | 8.64201 | 1176 ft | 164 kts | 249° |
| 2026-04-16 23:39 | 50.04924 | 8.62565 | 956 ft | 162 kts | 250° |
| 2026-04-16 23:39 | 50.04536 | 8.60962 | 716 ft | 154 kts | 250° |
| 2026-04-16 23:39 | 50.04171 | 8.59426 | 463 ft | 149 kts | 250° |
| 2026-04-16 23:39 | 50.03845 | 8.57973 | 348 ft | 129 kts | 245° |
| 2026-04-16 23:40 | 50.03591 | 8.56908 | 354 ft | 80 kts | 250° |
| 2026-04-16 23:40 | 50.03442 | 8.56285 | 346 ft | 52 kts | 250° |
| 2026-04-16 23:40 | 50.03323 | 8.55803 | 353 ft | 45 kts | 250° |
| 2026-04-16 23:40 | 50.03165 | 8.55485 | 346 ft | 30 kts | 221° |
| 2026-04-16 23:41 | 50.03042 | 8.55328 | 346 ft | 10 kts | 218° |
| 2026-04-16 23:41 | 50.03031 | 8.55343 | 348 ft | 6 kts | 86° |
| 2026-04-16 23:41 | 50.03059 | 8.55498 | 346 ft | 18 kts | 71° |
| 2026-04-16 23:41 | 50.03035 | 8.55649 | 346 ft | 16 kts | 140° |
| 2026-04-16 23:42 | 50.03040 | 8.55792 | 347 ft | 15 kts | 60° |
| 2026-04-16 23:42 | 50.03089 | 8.55944 | 353 ft | 17 kts | 68° |
| 2026-04-16 23:42 | 50.03138 | 8.56118 | 348 ft | 18 kts | 75° |
| 2026-04-16 23:42 | 50.03147 | 8.56247 | 346 ft | 1 kts | 77° |
| 2026-04-16 23:43 | 50.03154 | 8.56244 | 346 ft | 3 kts | 348° |
| 2026-04-16 23:43 | 50.03190 | 8.56177 | 351 ft | 8 kts | 322° |
| 2026-04-16 23:43 | 50.03223 | 8.56201 | 348 ft | 5 kts | 38° |
| 2026-04-16 23:43 | 50.03239 | 8.56228 | 348 ft | 2 kts | 73° |
| 2026-04-16 23:44 | 50.03246 | 8.56272 | 349 ft | 11 kts | 74° |
| 2026-04-16 23:44 | 50.03293 | 8.56469 | 351 ft | 22 kts | 69° |
| 2026-04-16 23:44 | 50.03348 | 8.56702 | 354 ft | 24 kts | 70° |
| 2026-04-16 23:44 | 50.03407 | 8.56950 | 349 ft | 25 kts | 69° |
| 2026-04-16 23:45 | 50.03462 | 8.57177 | 346 ft | 17 kts | 70° |
| 2026-04-16 23:45 | 50.03505 | 8.57362 | 346 ft | 19 kts | 70° |
| 2026-04-16 23:45 | 50.03555 | 8.57568 | 350 ft | 21 kts | 69° |
| 2026-04-16 23:45 | 50.03606 | 8.57785 | 351 ft | 21 kts | 65° |
| 2026-04-16 23:46 | 50.03659 | 8.58006 | 347 ft | 22 kts | 69° |
| 2026-04-16 23:46 | 50.03710 | 8.58234 | 346 ft | 23 kts | 71° |
| 2026-04-16 23:46 | 50.03769 | 8.58468 | 349 ft | 24 kts | 72° |
| 2026-04-16 23:46 | 50.03808 | 8.58659 | 346 ft | 0 kts | 72° |
| 2026-04-16 23:47 | 50.03803 | 8.58712 | 353 ft | 13 kts | 123° |
| 2026-04-16 23:47 | 50.03762 | 8.58833 | 346 ft | 13 kts | 74° |
| 2026-04-16 23:47 | 50.03796 | 8.58975 | 347 ft | 15 kts | 71° |
| 2026-04-16 23:47 | 50.03835 | 8.59137 | 348 ft | 17 kts | 70° |
| 2026-04-16 23:48 | 50.03882 | 8.59311 | 352 ft | 18 kts | 63° |
| 2026-04-16 23:48 | 50.03964 | 8.59466 | 346 ft | 19 kts | 41° |
| 2026-04-16 23:48 | 50.04084 | 8.59564 | 353 ft | 20 kts | 20° |
| 2026-04-16 23:48 | 50.04219 | 8.59633 | 355 ft | 21 kts | 8° |
| 2026-04-16 23:49 | 50.04368 | 8.59634 | 351 ft | 22 kts | 356° |
| 2026-04-16 23:49 | 50.04525 | 8.59627 | 346 ft | 23 kts | 359° |
| 2026-04-16 23:49 | 50.04686 | 8.59608 | 346 ft | 24 kts | 357° |
| 2026-04-16 23:49 | 50.04830 | 8.59499 | 346 ft | 24 kts | 322° |
| 2026-04-16 23:50 | 50.04849 | 8.59278 | 347 ft | 23 kts | 251° |
| 2026-04-16 23:50 | 50.04789 | 8.59038 | 348 ft | 24 kts | 250° |
| 2026-04-16 23:50 | 50.04738 | 8.58824 | 352 ft | 15 kts | 231° |
| 2026-04-16 23:50 | 50.04703 | 8.58687 | 353 ft | 15 kts | 252° |
| 2026-04-16 23:51 | 50.04665 | 8.58530 | 346 ft | 16 kts | 248° |
| 2026-04-16 23:51 | 50.04624 | 8.58354 | 352 ft | 18 kts | 251° |
| 2026-04-16 23:51 | 50.04578 | 8.58160 | 350 ft | 20 kts | 249° |
| 2026-04-16 23:51 | 50.04528 | 8.57949 | 354 ft | 22 kts | 251° |
| 2026-04-16 23:52 | 50.04477 | 8.57730 | 353 ft | 19 kts | 256° |
| 2026-04-16 23:52 | 50.04511 | 8.57553 | 352 ft | 19 kts | 331° |
| 2026-04-16 23:52 | 50.04596 | 8.57443 | 348 ft | 8 kts | 265° |
| 2026-04-16 23:52 | 50.04578 | 8.57361 | 346 ft | 10 kts | 253° |
| 2026-04-16 23:53 | 50.04546 | 8.57221 | 346 ft | 16 kts | 249° |
| 2026-04-16 23:53 | 50.04507 | 8.57052 | 348 ft | 18 kts | 249° |
| 2026-04-16 23:53 | 50.04461 | 8.56864 | 347 ft | 19 kts | 251° |
| 2026-04-16 23:53 | 50.04413 | 8.56658 | 353 ft | 21 kts | 248° |
| 2026-04-16 23:54 | 50.04360 | 8.56437 | 349 ft | 22 kts | 248° |
| 2026-04-16 23:54 | 50.04303 | 8.56203 | 349 ft | 24 kts | 249° |
| 2026-04-16 23:54 | 50.04372 | 8.56050 | 353 ft | 17 kts | 340° |
| 2026-04-16 23:54 | 50.04450 | 8.56112 | 350 ft | 13 kts | 66° |
| 2026-04-16 23:55 | 50.04485 | 8.56257 | 348 ft | 15 kts | 69° |
| 2026-04-16 23:55 | 50.04523 | 8.56302 | 349 ft | 0 kts | 353° |
| 2026-04-16 23:55 | 50.04539 | 8.56296 | 348 ft | 0 kts | 347° |
| 2026-04-16 23:56 | 50.04554 | 8.56302 | 349 ft | 3 kts | 25° |
| 2026-04-16 23:56 | 50.04559 | 8.56308 | 348 ft | 0 kts | 32° |
| 2026-04-16 23:56 | 50.04564 | 8.56312 | 346 ft | 1 kts | 33° |
| 2026-04-16 23:57 | 50.04566 | 8.56315 | 346 ft | 1 kts | 34° |
| 2026-04-16 23:57 | 50.04567 | 8.56316 | 346 ft | 0 kts | 36° |